sensor_id;sensor_type;location;lat;lon;timestamp;pressure;altitude;pressure_sealevel;temperature;humidity
46007;BME280;31738;50.188;8.524;2023-03-23T00:01:24;98170.59;;;13.93;61.32
46007;BME280;31738;50.188;8.524;2023-03-23T00:03:53;98157.13;;;13.93;61.15
46007;BME280;31738;50.188;8.524;2023-03-23T00:06:19;98152.34;;;13.90;61.51
46007;BME280;31738;50.188;8.524;2023-03-23T00:08:48;98156.13;;;13.89;61.60
46007;BME280;31738;50.188;8.524;2023-03-23T00:11:17;98157.56;;;13.87;61.78
46007;BME280;31738;50.188;8.524;2023-03-23T00:13:50;98155.47;;;13.84;62.28
46007;BME280;31738;50.188;8.524;2023-03-23T00:16:23;98155.47;;;13.84;61.99
46007;BME280;31738;50.188;8.524;2023-03-23T00:19:04;98148.50;;;13.83;61.90
46007;BME280;31738;50.188;8.524;2023-03-23T00:21:37;98152.59;;;13.80;62.17
46007;BME280;31738;50.188;8.524;2023-03-23T00:24:11;98140.22;;;13.79;62.13
46007;BME280;31738;50.188;8.524;2023-03-23T00:26:39;98148.00;;;13.81;62.19
46007;BME280;31738;50.188;8.524;2023-03-23T00:29:18;98150.19;;;13.78;62.43
46007;BME280;31738;50.188;8.524;2023-03-23T00:31:55;98138.91;;;13.76;62.32
46007;BME280;31738;50.188;8.524;2023-03-23T00:34:25;98127.84;;;13.78;62.32
46007;BME280;31738;50.188;8.524;2023-03-23T00:37:00;98140.03;;;13.75;62.53
46007;BME280;31738;50.188;8.524;2023-03-23T00:39:37;98137.03;;;13.77;62.42
46007;BME280;31738;50.188;8.524;2023-03-23T00:42:15;98121.47;;;13.74;62.55
46007;BME280;31738;50.188;8.524;2023-03-23T00:44:49;98119.28;;;13.76;62.53
46007;BME280;31738;50.188;8.524;2023-03-23T00:47:16;98116.88;;;13.74;62.80
46007;BME280;31738;50.188;8.524;2023-03-23T00:49:54;98118.78;;;13.74;62.68
46007;BME280;31738;50.188;8.524;2023-03-23T00:52:31;98116.41;;;13.72;63.12
46007;BME280;31738;50.188;8.524;2023-03-23T00:54:57;98105.94;;;13.71;62.94
46007;BME280;31738;50.188;8.524;2023-03-23T00:57:24;98110.19;;;13.72;62.83
46007;BME280;31738;50.188;8.524;2023-03-23T00:59:52;98105.31;;;13.74;62.95
46007;BME280;31738;50.188;8.524;2023-03-23T01:02:20;98102.59;;;13.74;63.16
46007;BME280;31738;50.188;8.524;2023-03-23T01:04:53;98097.72;;;13.76;62.91
46007;BME280;31738;50.188;8.524;2023-03-23T01:07:21;98111.19;;;13.76;62.85
46007;BME280;31738;50.188;8.524;2023-03-23T01:09:57;98106.88;;;13.75;62.94
46007;BME280;31738;50.188;8.524;2023-03-23T01:12:31;98109.13;;;13.73;63.32
46007;BME280;31738;50.188;8.524;2023-03-23T01:15:00;98096.72;;;13.72;63.06
46007;BME280;31738;50.188;8.524;2023-03-23T01:17:33;98097.84;;;13.71;63.36
46007;BME280;31738;50.188;8.524;2023-03-23T01:20:28;98108.75;;;13.66;63.51
46007;BME280;31738;50.188;8.524;2023-03-23T01:23:04;98110.34;;;13.67;63.12
46007;BME280;31738;50.188;8.524;2023-03-23T01:26:02;98100.66;;;13.66;63.67
46007;BME280;31738;50.188;8.524;2023-03-23T01:28:27;98105.09;;;13.62;63.34
46007;BME280;31738;50.188;8.524;2023-03-23T01:31:17;98103.34;;;13.66;63.22
46007;BME280;31738;50.188;8.524;2023-03-23T01:33:47;98094.78;;;13.64;63.50
46007;BME280;31738;50.188;8.524;2023-03-23T01:36:22;98089.41;;;13.64;63.71
46007;BME280;31738;50.188;8.524;2023-03-23T01:38:58;98082.91;;;13.65;63.81
46007;BME280;31738;50.188;8.524;2023-03-23T01:41:30;98084.78;;;13.64;63.84
46007;BME280;31738;50.188;8.524;2023-03-23T01:47:06;98080.03;;;13.61;63.73
46007;BME280;31738;50.188;8.524;2023-03-23T01:49:48;98082.41;;;13.63;63.62
46007;BME280;31738;50.188;8.524;2023-03-23T01:52:22;98084.78;;;13.64;63.70
46007;BME280;31738;50.188;8.524;2023-03-23T01:55:01;98079.41;;;13.64;63.96
46007;BME280;31738;50.188;8.524;2023-03-23T01:57:30;98065.16;;;13.64;63.97
46007;BME280;31738;50.188;8.524;2023-03-23T02:00:10;98060.22;;;13.66;64.22
46007;BME280;31738;50.188;8.524;2023-03-23T02:02:44;98058.66;;;13.65;64.15
46007;BME280;31738;50.188;8.524;2023-03-23T02:05:40;98070.38;;;13.69;63.90
46007;BME280;31738;50.188;8.524;2023-03-23T02:08:21;98077.03;;;13.63;64.04
46007;BME280;31738;50.188;8.524;2023-03-23T02:11:14;98075.94;;;13.64;64.17
46007;BME280;31738;50.188;8.524;2023-03-23T02:13:53;98074.81;;;13.65;64.22
46007;BME280;31738;50.188;8.524;2023-03-23T02:19:55;98054.22;;;13.69;63.76
46007;BME280;31738;50.188;8.524;2023-03-23T02:22:56;98054.84;;;13.66;64.36
46007;BME280;31738;50.188;8.524;2023-03-23T02:34:02;98038.22;;;13.64;65.45
46007;BME280;31738;50.188;8.524;2023-03-23T02:36:41;98036.75;;;13.58;65.72
46007;BME280;31738;50.188;8.524;2023-03-23T02:39:13;98039.75;;;13.56;65.96
46007;BME280;31738;50.188;8.524;2023-03-23T02:41:47;98039.13;;;13.59;65.81
46007;BME280;31738;50.188;8.524;2023-03-23T02:44:16;98034.53;;;13.60;66.13
46007;BME280;31738;50.188;8.524;2023-03-23T02:46:46;98035.50;;;13.64;66.74
46007;BME280;31738;50.188;8.524;2023-03-23T02:49:14;98020.91;;;13.65;66.83
46007;BME280;31738;50.188;8.524;2023-03-23T02:51:42;98007.75;;;13.63;67.61
46007;BME280;31738;50.188;8.524;2023-03-23T02:54:10;98001.88;;;13.61;68.64
46007;BME280;31738;50.188;8.524;2023-03-23T02:56:38;98003.31;;;13.59;69.41
46007;BME280;31738;50.188;8.524;2023-03-23T02:59:11;98005.03;;;13.55;69.91
46007;BME280;31738;50.188;8.524;2023-03-23T03:04:06;97997.56;;;13.52;71.49
46007;BME280;31738;50.188;8.524;2023-03-23T03:12:27;97971.06;;;13.45;72.07
46007;BME280;31738;50.188;8.524;2023-03-23T03:15:06;97955.97;;;13.36;73.06
46007;BME280;31738;50.188;8.524;2023-03-23T03:17:35;97955.00;;;13.32;73.85
46007;BME280;31738;50.188;8.524;2023-03-23T03:20:06;97948.81;;;13.31;74.77
46007;BME280;31738;50.188;8.524;2023-03-23T03:22:39;97942.16;;;13.29;74.98
46007;BME280;31738;50.188;8.524;2023-03-23T03:25:11;97947.84;;;13.27;75.56
46007;BME280;31738;50.188;8.524;2023-03-23T03:27:43;97944.97;;;13.24;75.26
46007;BME280;31738;50.188;8.524;2023-03-23T03:30:20;97934.53;;;13.22;75.78
46007;BME280;31738;50.188;8.524;2023-03-23T03:32:49;97944.00;;;13.20;75.64
46007;BME280;31738;50.188;8.524;2023-03-23T03:35:20;97940.84;;;13.18;76.51
46007;BME280;31738;50.188;8.524;2023-03-23T03:37:47;97934.97;;;13.16;77.02
46007;BME280;31738;50.188;8.524;2023-03-23T03:40:19;97935.25;;;13.14;77.47
46007;BME280;31738;50.188;8.524;2023-03-23T03:42:46;97938.25;;;13.13;77.60
46007;BME280;31738;50.188;8.524;2023-03-23T03:45:17;97931.31;;;13.12;77.54
46007;BME280;31738;50.188;8.524;2023-03-23T03:47:44;97923.53;;;13.10;77.91
46007;BME280;31738;50.188;8.524;2023-03-23T03:50:10;97922.41;;;13.11;77.67
46007;BME280;31738;50.188;8.524;2023-03-23T03:52:37;97915.16;;;13.12;77.48
46007;BME280;31738;50.188;8.524;2023-03-23T03:55:05;97917.03;;;13.11;77.69
46007;BME280;31738;50.188;8.524;2023-03-23T03:57:33;97926.22;;;13.10;78.14
46007;BME280;31738;50.188;8.524;2023-03-23T04:00:17;97916.38;;;13.06;78.02
46007;BME280;31738;50.188;8.524;2023-03-23T04:02:47;97914.16;;;13.08;78.26
46007;BME280;31738;50.188;8.524;2023-03-23T04:05:17;97909.88;;;13.07;78.38
46007;BME280;31738;50.188;8.524;2023-03-23T04:07:44;97917.97;;;13.07;78.83
46007;BME280;31738;50.188;8.524;2023-03-23T04:10:11;97917.16;;;13.06;78.68
46007;BME280;31738;50.188;8.524;2023-03-23T04:12:40;97906.38;;;13.06;78.77
46007;BME280;31738;50.188;8.524;2023-03-23T04:15:25;97919.28;;;12.96;78.45
46007;BME280;31738;50.188;8.524;2023-03-23T04:17:51;97924.31;;;12.89;78.78
46007;BME280;31738;50.188;8.524;2023-03-23T04:20:17;97929.56;;;12.94;78.74
46007;BME280;31738;50.188;8.524;2023-03-23T04:22:47;97924.69;;;12.96;78.65
46007;BME280;31738;50.188;8.524;2023-03-23T04:25:18;97924.59;;;13.01;78.55
46007;BME280;31738;50.188;8.524;2023-03-23T04:27:48;97935.53;;;13.04;78.35
46007;BME280;31738;50.188;8.524;2023-03-23T04:30:20;97934.13;;;13.07;77.78
46007;BME280;31738;50.188;8.524;2023-03-23T04:32:57;97939.50;;;13.07;77.60
46007;BME280;31738;50.188;8.524;2023-03-23T04:35:25;97940.47;;;13.11;77.59
46007;BME280;31738;50.188;8.524;2023-03-23T04:38:02;97943.03;;;13.16;77.25
46007;BME280;31738;50.188;8.524;2023-03-23T04:40:28;97947.00;;;13.18;76.62
46007;BME280;31738;50.188;8.524;2023-03-23T04:43:06;97950.97;;;13.21;76.51
46007;BME280;31738;50.188;8.524;2023-03-23T04:45:58;97952.94;;;13.29;75.85
46007;BME280;31738;50.188;8.524;2023-03-23T04:48:29;97946.94;;;13.32;75.51
46007;BME280;31738;50.188;8.524;2023-03-23T04:51:18;97950.59;;;13.36;74.93
46007;BME280;31738;50.188;8.524;2023-03-23T04:53:47;97952.84;;;13.42;74.67
46007;BME280;31738;50.188;8.524;2023-03-23T04:56:12;97956.16;;;13.48;74.58
46007;BME280;31738;50.188;8.524;2023-03-23T04:58:44;97949.66;;;13.49;74.14
46007;BME280;31738;50.188;8.524;2023-03-23T05:01:21;97963.13;;;13.49;73.95
46007;BME280;31738;50.188;8.524;2023-03-23T05:04:00;97949.34;;;13.50;73.82
46007;BME280;31738;50.188;8.524;2023-03-23T05:06:26;97969.50;;;13.53;74.03
46007;BME280;31738;50.188;8.524;2023-03-23T05:08:57;97960.94;;;13.51;73.86
46007;BME280;31738;50.188;8.524;2023-03-23T05:11:23;97958.75;;;13.53;74.29
46007;BME280;31738;50.188;8.524;2023-03-23T05:13:49;97964.13;;;13.53;73.77
46007;BME280;31738;50.188;8.524;2023-03-23T05:16:17;97965.72;;;13.54;74.08
46007;BME280;31738;50.188;8.524;2023-03-23T05:18:43;97967.00;;;13.56;73.75
46007;BME280;31738;50.188;8.524;2023-03-23T05:21:12;97977.47;;;13.58;73.63
46007;BME280;31738;50.188;8.524;2023-03-23T05:23:43;97977.47;;;13.58;73.67
46007;BME280;31738;50.188;8.524;2023-03-23T05:26:15;97974.78;;;13.58;73.41
46007;BME280;31738;50.188;8.524;2023-03-23T05:28:41;97969.38;;;13.58;74.02
46007;BME280;31738;50.188;8.524;2023-03-23T05:31:14;97972.09;;;13.58;73.68
46007;BME280;31738;50.188;8.524;2023-03-23T05:33:40;97973.03;;;13.62;74.16
46007;BME280;31738;50.188;8.524;2023-03-23T05:36:14;97967.66;;;13.62;74.42
46007;BME280;31738;50.188;8.524;2023-03-23T05:38:58;97979.03;;;13.59;74.56
46007;BME280;31738;50.188;8.524;2023-03-23T05:41:26;97969.06;;;13.59;74.61
46007;BME280;31738;50.188;8.524;2023-03-23T05:43:52;97970.97;;;13.59;75.10
46007;BME280;31738;50.188;8.524;2023-03-23T05:46:38;97977.78;;;13.56;74.82
46007;BME280;31738;50.188;8.524;2023-03-23T05:49:06;97979.66;;;13.56;75.22
46007;BME280;31738;50.188;8.524;2023-03-23T05:51:37;97980.16;;;13.58;75.37
46007;BME280;31738;50.188;8.524;2023-03-23T05:54:03;97981.25;;;13.57;75.33
46007;BME280;31738;50.188;8.524;2023-03-23T05:56:29;97978.56;;;13.57;75.70
46007;BME280;31738;50.188;8.524;2023-03-23T05:59:09;97984.25;;;13.55;75.58
46007;BME280;31738;50.188;8.524;2023-03-23T06:01:37;97988.88;;;13.55;75.53
46007;BME280;31738;50.188;8.524;2023-03-23T06:04:03;97985.06;;;13.56;75.87
46007;BME280;31738;50.188;8.524;2023-03-23T06:06:39;97982.38;;;13.56;76.12
46007;BME280;31738;50.188;8.524;2023-03-23T06:09:08;97984.25;;;13.55;76.02
46007;BME280;31738;50.188;8.524;2023-03-23T06:12:04;97991.19;;;13.48;75.91
46007;BME280;31738;50.188;8.524;2023-03-23T06:14:40;97990.19;;;13.35;76.37
46007;BME280;31738;50.188;8.524;2023-03-23T06:17:06;97995.13;;;13.42;77.10
46007;BME280;31738;50.188;8.524;2023-03-23T06:19:33;97991.81;;;13.45;76.95
46007;BME280;31738;50.188;8.524;2023-03-23T06:22:08;97981.34;;;13.43;76.99
46007;BME280;31738;50.188;8.524;2023-03-23T06:24:43;97985.63;;;13.44;77.41
46007;BME280;31738;50.188;8.524;2023-03-23T06:27:10;97981.34;;;13.43;77.79
46007;BME280;31738;50.188;8.524;2023-03-23T06:29:36;97980.41;;;13.48;77.84
46007;BME280;31738;50.188;8.524;2023-03-23T06:32:03;97975.03;;;13.48;78.26
46007;BME280;31738;50.188;8.524;2023-03-23T06:34:31;97980.13;;;13.49;78.17
46007;BME280;31738;50.188;8.524;2023-03-23T06:37:20;97973.91;;;13.49;78.40
46007;BME280;31738;50.188;8.524;2023-03-23T06:40:03;97969.50;;;13.53;78.49
46007;BME280;31738;50.188;8.524;2023-03-23T06:42:36;97976.47;;;13.54;77.88
46007;BME280;31738;50.188;8.524;2023-03-23T06:45:20;97990.69;;;13.46;78.23
46007;BME280;31738;50.188;8.524;2023-03-23T06:47:50;97992.47;;;13.50;78.19
46007;BME280;31738;50.188;8.524;2023-03-23T06:50:16;97997.25;;;13.53;78.59
46007;BME280;31738;50.188;8.524;2023-03-23T06:52:49;97988.25;;;13.58;78.80
46007;BME280;31738;50.188;8.524;2023-03-23T06:55:17;97991.25;;;13.56;78.82
46007;BME280;31738;50.188;8.524;2023-03-23T06:57:44;97995.53;;;13.57;78.97
46007;BME280;31738;50.188;8.524;2023-03-23T07:00:12;97991.41;;;13.60;79.09
46007;BME280;31738;50.188;8.524;2023-03-23T07:02:39;97988.41;;;13.61;78.75
46007;BME280;31738;50.188;8.524;2023-03-23T07:05:07;97990.78;;;13.63;78.97
46007;BME280;31738;50.188;8.524;2023-03-23T07:07:35;97990.78;;;13.63;78.89
46007;BME280;31738;50.188;8.524;2023-03-23T07:10:14;97993.47;;;13.63;79.02
46007;BME280;31738;50.188;8.524;2023-03-23T07:12:40;97999.38;;;13.65;79.04
46007;BME280;31738;50.188;8.524;2023-03-23T07:15:08;97999.38;;;13.65;79.31
46007;BME280;31738;50.188;8.524;2023-03-23T07:17:37;98004.75;;;13.65;79.22
46007;BME280;31738;50.188;8.524;2023-03-23T07:20:11;98008.56;;;13.64;79.07
46007;BME280;31738;50.188;8.524;2023-03-23T07:22:38;97995.56;;;13.66;79.08
46007;BME280;31738;50.188;8.524;2023-03-23T07:25:13;98000.94;;;13.66;79.08
46007;BME280;31738;50.188;8.524;2023-03-23T07:27:47;98002.56;;;13.67;79.28
46007;BME280;31738;50.188;8.524;2023-03-23T07:30:15;98010.63;;;13.67;79.23
46007;BME280;31738;50.188;8.524;2023-03-23T07:32:41;98000.31;;;13.69;79.57
46007;BME280;31738;50.188;8.524;2023-03-23T07:35:08;98016.50;;;13.69;79.42
46007;BME280;31738;50.188;8.524;2023-03-23T07:37:48;98011.72;;;13.66;79.40
46007;BME280;31738;50.188;8.524;2023-03-23T07:40:15;98017.59;;;13.68;79.40
46007;BME280;31738;50.188;8.524;2023-03-23T07:42:46;98018.88;;;13.70;79.28
46007;BME280;31738;50.188;8.524;2023-03-23T07:45:23;98011.91;;;13.69;79.49
46007;BME280;31738;50.188;8.524;2023-03-23T07:47:49;98016.97;;;13.71;79.66
46007;BME280;31738;50.188;8.524;2023-03-23T07:50:15;98023.19;;;13.71;79.62
46007;BME280;31738;50.188;8.524;2023-03-23T07:52:42;98012.09;;;13.73;79.92
46007;BME280;31738;50.188;8.524;2023-03-23T07:55:10;98021.25;;;13.72;79.90
46007;BME280;31738;50.188;8.524;2023-03-23T07:58:00;98030.47;;;13.71;79.86
46007;BME280;31738;50.188;8.524;2023-03-23T08:00:25;98030.94;;;13.73;80.10
46007;BME280;31738;50.188;8.524;2023-03-23T08:02:55;98021.94;;;13.77;79.98
46007;BME280;31738;50.188;8.524;2023-03-23T08:05:30;98022.72;;;13.78;80.08
46007;BME280;31738;50.188;8.524;2023-03-23T08:08:15;98023.19;;;13.80;80.25
46007;BME280;31738;50.188;8.524;2023-03-23T08:11:04;98025.59;;;13.82;80.00
46007;BME280;31738;50.188;8.524;2023-03-23T08:13:48;98041.44;;;13.83;80.22
46007;BME280;31738;50.188;8.524;2023-03-23T08:16:13;98030.03;;;13.86;80.21
46007;BME280;31738;50.188;8.524;2023-03-23T08:18:42;98027.34;;;13.86;80.38
46007;BME280;31738;50.188;8.524;2023-03-23T08:21:57;98036.06;;;13.83;80.58
46007;BME280;31738;50.188;8.524;2023-03-23T08:24:34;98041.31;;;13.88;80.91
46007;BME280;31738;50.188;8.524;2023-03-23T08:27:28;98050.97;;;13.89;80.62
46007;BME280;31738;50.188;8.524;2023-03-23T08:30:09;98039.88;;;13.91;80.68
46007;BME280;31738;50.188;8.524;2023-03-23T08:33:07;98050.38;;;13.92;81.20
46007;BME280;31738;50.188;8.524;2023-03-23T08:35:56;98047.03;;;13.95;81.21
46007;BME280;31738;50.188;8.524;2023-03-23T08:38:41;98064.34;;;13.94;81.14
46007;BME280;31738;50.188;8.524;2023-03-23T08:41:27;98061.31;;;13.96;81.43
46007;BME280;31738;50.188;8.524;2023-03-23T08:44:25;98070.22;;;13.96;81.26
46007;BME280;31738;50.188;8.524;2023-03-23T08:47:15;98064.03;;;13.96;81.21
46007;BME280;31738;50.188;8.524;2023-03-23T08:50:02;98064.81;;;13.96;81.31
46007;BME280;31738;50.188;8.524;2023-03-23T08:52:53;98054.03;;;13.96;81.30
46007;BME280;31738;50.188;8.524;2023-03-23T08:55:33;98055.94;;;14.04;81.29
46007;BME280;31738;50.188;8.524;2023-03-23T08:58:28;98064.41;;;14.11;81.34
46007;BME280;31738;50.188;8.524;2023-03-23T09:00:54;98051.25;;;14.18;80.70
46007;BME280;31738;50.188;8.524;2023-03-23T09:03:29;98050.81;;;14.25;80.43
46007;BME280;31738;50.188;8.524;2023-03-23T09:06:12;98051.47;;;14.30;80.53
46007;BME280;31738;50.188;8.524;2023-03-23T09:08:44;98058.34;;;14.36;80.06
46007;BME280;31738;50.188;8.524;2023-03-23T09:11:10;98040.41;;;14.40;79.66
46007;BME280;31738;50.188;8.524;2023-03-23T09:13:37;98046.28;;;14.42;79.29
46007;BME280;31738;50.188;8.524;2023-03-23T09:16:04;98048.03;;;14.47;79.51
46007;BME280;31738;50.188;8.524;2023-03-23T09:18:30;98052.47;;;14.51;79.70
46007;BME280;31738;50.188;8.524;2023-03-23T09:20:58;98050.91;;;14.59;79.56
46007;BME280;31738;50.188;8.524;2023-03-23T09:23:24;98057.75;;;14.65;79.37
46007;BME280;31738;50.188;8.524;2023-03-23T09:25:50;98058.06;;;14.72;79.25
46007;BME280;31738;50.188;8.524;2023-03-23T09:28:17;98061.41;;;14.77;79.38
46007;BME280;31738;50.188;8.524;2023-03-23T09:30:43;98058.06;;;14.80;79.33
46007;BME280;31738;50.188;8.524;2023-03-23T09:33:09;98068.25;;;14.83;79.17
46007;BME280;31738;50.188;8.524;2023-03-23T09:35:35;98054.59;;;14.88;78.89
46007;BME280;31738;50.188;8.524;2023-03-23T09:38:03;98064.75;;;14.91;78.80
46007;BME280;31738;50.188;8.524;2023-03-23T09:40:48;98061.25;;;14.99;78.33
46007;BME280;31738;50.188;8.524;2023-03-23T09:43:29;98068.25;;;15.00;78.41
46007;BME280;31738;50.188;8.524;2023-03-23T09:54:26;98065.84;;;15.07;78.49
46007;BME280;31738;50.188;8.524;2023-03-23T09:56:53;98065.38;;;15.05;78.89
46007;BME280;31738;50.188;8.524;2023-03-23T09:59:21;98074.13;;;15.11;78.23
46007;BME280;31738;50.188;8.524;2023-03-23T10:01:58;98070.63;;;15.19;78.74
46007;BME280;31738;50.188;8.524;2023-03-23T10:04:30;98087.63;;;15.19;78.47
46007;BME280;31738;50.188;8.524;2023-03-23T10:07:10;98080.63;;;15.18;78.15
46007;BME280;31738;50.188;8.524;2023-03-23T10:09:37;98097.78;;;15.14;77.87
46007;BME280;31738;50.188;8.524;2023-03-23T10:15:19;98100.34;;;15.10;76.98
46007;BME280;31738;50.188;8.524;2023-03-23T10:17:52;98101.78;;;15.08;76.66
46007;BME280;31738;50.188;8.524;2023-03-23T10:23:05;98111.13;;;15.10;75.72
46007;BME280;31738;50.188;8.524;2023-03-23T10:25:37;98122.09;;;15.14;75.52
46007;BME280;31738;50.188;8.524;2023-03-23T10:28:21;98128.31;;;15.23;74.90
46007;BME280;31738;50.188;8.524;2023-03-23T10:30:52;98131.81;;;15.23;75.09
46007;BME280;31738;50.188;8.524;2023-03-23T10:33:25;98134.50;;;15.23;74.77
46007;BME280;31738;50.188;8.524;2023-03-23T10:36:13;98136.56;;;15.26;74.61
46007;BME280;31738;50.188;8.524;2023-03-23T10:38:45;98132.13;;;15.30;74.77
46007;BME280;31738;50.188;8.524;2023-03-23T10:41:18;98126.72;;;15.39;74.23
46007;BME280;31738;50.188;8.524;2023-03-23T10:43:45;98132.31;;;15.51;73.42
46007;BME280;31738;50.188;8.524;2023-03-23T10:48:59;98152.47;;;15.71;72.82
46007;BME280;31738;50.188;8.524;2023-03-23T10:51:36;98158.81;;;15.75;71.97
46007;BME280;31738;50.188;8.524;2023-03-23T10:54:03;98157.41;;;15.69;71.71
46007;BME280;31738;50.188;8.524;2023-03-23T10:56:42;98156.31;;;15.70;70.96
46007;BME280;31738;50.188;8.524;2023-03-23T10:59:26;98167.72;;;15.67;71.02
46007;BME280;31738;50.188;8.524;2023-03-23T11:01:56;98164.25;;;15.58;70.89
46007;BME280;31738;50.188;8.524;2023-03-23T11:04:23;98167.91;;;15.53;70.44
46007;BME280;31738;50.188;8.524;2023-03-23T11:06:58;98170.94;;;15.52;70.76
46007;BME280;31738;50.188;8.524;2023-03-23T11:09:38;98172.84;;;15.51;70.75
46007;BME280;31738;50.188;8.524;2023-03-23T11:12:04;98171.56;;;15.49;70.45
46007;BME280;31738;50.188;8.524;2023-03-23T11:14:41;98173.47;;;15.57;70.26
46007;BME280;31738;50.188;8.524;2023-03-23T11:17:21;98174.91;;;15.71;69.97
46007;BME280;31738;50.188;8.524;2023-03-23T11:19:47;98181.09;;;15.72;69.51
46007;BME280;31738;50.188;8.524;2023-03-23T11:22:25;98180.94;;;15.77;69.78
46007;BME280;31738;50.188;8.524;2023-03-23T11:25:12;98179.00;;;15.86;69.78
46007;BME280;31738;50.188;8.524;2023-03-23T11:27:38;98183.28;;;15.87;69.47
46007;BME280;31738;50.188;8.524;2023-03-23T11:30:10;98185.19;;;15.95;69.27
46007;BME280;31738;50.188;8.524;2023-03-23T11:32:36;98181.41;;;15.96;69.08
46007;BME280;31738;50.188;8.524;2023-03-23T11:35:05;98186.00;;;15.95;69.07
46007;BME280;31738;50.188;8.524;2023-03-23T11:37:40;98187.41;;;15.93;69.69
46007;BME280;31738;50.188;8.524;2023-03-23T11:42:46;98200.47;;;16.08;70.08
46007;BME280;31738;50.188;8.524;2023-03-23T11:45:30;98204.25;;;16.07;69.50
46007;BME280;31738;50.188;8.524;2023-03-23T11:48:03;98195.69;;;16.05;69.83
46007;BME280;31738;50.188;8.524;2023-03-23T11:58:46;98193.78;;;15.97;68.96
46007;BME280;31738;50.188;8.524;2023-03-23T12:01:21;98196.81;;;15.95;68.87
46007;BME280;31738;50.188;8.524;2023-03-23T12:04:07;98187.59;;;15.88;69.01
46007;BME280;31738;50.188;8.524;2023-03-23T12:14:53;98180.78;;;15.65;70.05
46007;BME280;31738;50.188;8.524;2023-03-23T12:23:14;98169.34;;;15.68;70.45
46007;BME280;31738;50.188;8.524;2023-03-23T12:26:16;98157.75;;;15.59;71.04
46007;BME280;31738;50.188;8.524;2023-03-23T12:28:53;98150.91;;;15.53;70.95
46007;BME280;31738;50.188;8.524;2023-03-23T12:31:36;98148.03;;;15.58;70.89
46007;BME280;31738;50.188;8.524;2023-03-23T12:34:14;98144.22;;;15.59;70.70
46007;BME280;31738;50.188;8.524;2023-03-23T12:36:59;98127.34;;;15.70;70.79
46007;BME280;31738;50.188;8.524;2023-03-23T12:42:14;98121.56;;;15.89;70.92
46007;BME280;31738;50.188;8.524;2023-03-23T12:44:43;98125.53;;;16.00;71.02
46007;BME280;31738;50.188;8.524;2023-03-23T12:47:24;98128.34;;;16.12;70.85
46007;BME280;31738;50.188;8.524;2023-03-23T12:49:59;98128.94;;;16.17;70.46
46007;BME280;31738;50.188;8.524;2023-03-23T12:52:39;98119.69;;;16.27;70.24
46007;BME280;31738;50.188;8.524;2023-03-23T12:55:17;98115.03;;;16.36;70.30
46007;BME280;31738;50.188;8.524;2023-03-23T12:58:15;98119.63;;;16.44;69.68
46007;BME280;31738;50.188;8.524;2023-03-23T13:03:33;98156.25;;;16.50;68.75
46007;BME280;31738;50.188;8.524;2023-03-23T13:06:21;98148.59;;;16.52;69.31
46007;BME280;31738;50.188;8.524;2023-03-23T13:08:59;98128.66;;;16.56;69.25
46007;BME280;31738;50.188;8.524;2023-03-23T13:11:33;98125.63;;;16.58;68.32
46007;BME280;31738;50.188;8.524;2023-03-23T13:22:45;98127.94;;;16.68;68.59
46007;BME280;31738;50.188;8.524;2023-03-23T13:28:02;98129.16;;;16.79;68.74
46007;BME280;31738;50.188;8.524;2023-03-23T13:30:28;98128.13;;;16.92;68.59
46007;BME280;31738;50.188;8.524;2023-03-23T13:33:12;98124.56;;;17.00;67.44
46007;BME280;31738;50.188;8.524;2023-03-23T13:35:39;98122.50;;;16.97;68.09
46007;BME280;31738;50.188;8.524;2023-03-23T13:38:19;98130.25;;;17.07;68.21
46007;BME280;31738;50.188;8.524;2023-03-23T13:40:46;98137.47;;;17.03;67.21
46007;BME280;31738;50.188;8.524;2023-03-23T13:43:12;98137.91;;;17.05;67.49
46007;BME280;31738;50.188;8.524;2023-03-23T13:45:45;98141.56;;;17.09;67.46
46007;BME280;31738;50.188;8.524;2023-03-23T13:53:20;98130.31;;;17.19;67.47
46007;BME280;31738;50.188;8.524;2023-03-23T13:55:51;98122.91;;;17.28;67.07
46007;BME280;31738;50.188;8.524;2023-03-23T13:58:27;98115.50;;;17.37;66.44
46007;BME280;31738;50.188;8.524;2023-03-23T14:01:11;98126.34;;;17.37;65.78
46007;BME280;31738;50.188;8.524;2023-03-23T14:03:41;98127.66;;;17.31;65.67
46007;BME280;31738;50.188;8.524;2023-03-23T14:06:14;98130.84;;;17.13;66.13
46007;BME280;31738;50.188;8.524;2023-03-23T14:09:09;98135.69;;;17.07;66.33
46007;BME280;31738;50.188;8.524;2023-03-23T14:11:47;98135.38;;;17.00;65.80
46007;BME280;31738;50.188;8.524;2023-03-23T14:14:23;98138.31;;;16.95;65.56
46007;BME280;31738;50.188;8.524;2023-03-23T14:16:50;98143.91;;;16.90;65.86
46007;BME280;31738;50.188;8.524;2023-03-23T14:19:23;98148.09;;;16.87;66.34
46007;BME280;31738;50.188;8.524;2023-03-23T14:21:55;98137.25;;;16.87;66.63
46007;BME280;31738;50.188;8.524;2023-03-23T14:24:23;98142.66;;;16.87;66.97
46007;BME280;31738;50.188;8.524;2023-03-23T14:26:51;98140.06;;;16.91;67.24
46007;BME280;31738;50.188;8.524;2023-03-23T14:29:19;98139.41;;;16.94;67.27
46007;BME280;31738;50.188;8.524;2023-03-23T14:31:49;98142.94;;;16.94;66.81
46007;BME280;31738;50.188;8.524;2023-03-23T14:34:19;98140.41;;;16.89;66.85
46007;BME280;31738;50.188;8.524;2023-03-23T14:36:45;98147.28;;;16.87;66.48
46007;BME280;31738;50.188;8.524;2023-03-23T14:41:37;98137.94;;;16.76;67.21
46007;BME280;31738;50.188;8.524;2023-03-23T14:44:06;98148.19;;;16.70;67.74
46007;BME280;31738;50.188;8.524;2023-03-23T14:46:34;98147.75;;;16.60;67.85
46007;BME280;31738;50.188;8.524;2023-03-23T14:49:04;98148.59;;;16.52;68.13
46007;BME280;31738;50.188;8.524;2023-03-23T14:51:30;98151.00;;;16.45;68.38
46007;BME280;31738;50.188;8.524;2023-03-23T14:53:58;98134.44;;;16.38;67.96
46007;BME280;31738;50.188;8.524;2023-03-23T14:56:32;98140.84;;;16.33;67.98
46007;BME280;31738;50.188;8.524;2023-03-23T14:59:03;98139.25;;;16.32;67.76
46007;BME280;31738;50.188;8.524;2023-03-23T15:01:31;98138.13;;;16.33;67.94
46007;BME280;31738;50.188;8.524;2023-03-23T15:04:09;98138.28;;;16.37;66.99